Time;durP1;ratioP1;P1;durP2;ratioP2;P2;SDS_P1;SDS_P2;PMS_P1;PMS_P2;Temp;Humidity;BMP_temperature;BMP_pressure;BME280_temperature;BME280_humidity;BME280_pressure;Samples;Min_cycle;Max_cycle;Signal;HPM_P1;HPM_P2
2022/04/30 00:01:49;;;;;;;;;18.00;15.25;;;;;20.16;35.48;102148.38;5058115;28;45533;-52
2022/04/30 00:04:14;;;;;;;;;19.00;17.00;;;;;20.15;35.05;102147.53;5057513;28;53861;-50
2022/04/30 00:06:42;;;;;;;;;14.75;13.25;;;;;20.14;34.70;102134.41;5058103;28;45296;-51
2022/04/30 00:09:07;;;;;;;;;14.50;13.25;;;;;20.15;34.99;102141.41;5058110;28;45619;-50
2022/04/30 00:11:32;;;;;;;;;13.75;12.75;;;;;20.14;35.13;102137.91;5057654;28;46105;-51
2022/04/30 00:13:58;;;;;;;;;17.75;15.50;;;;;20.13;35.30;102135.31;5057483;28;45361;-50
2022/04/30 00:16:24;;;;;;;;;16.75;13.75;;;;;20.12;34.95;102146.78;5057804;28;45500;-50
2022/04/30 00:18:49;;;;;;;;;13.75;13.25;;;;;20.14;35.09;102144.94;5058366;28;45505;-51
2022/04/30 00:21:14;;;;;;;;;13.00;13.00;;;;;20.11;34.62;102145.91;5057629;28;45363;-52
2022/04/30 00:23:40;;;;;;;;;15.00;14.00;;;;;20.12;35.20;102150.25;5057405;28;45319;-50
2022/04/30 00:26:05;;;;;;;;;17.00;14.25;;;;;20.12;34.87;102149.41;5057660;28;45405;-54
2022/04/30 00:28:31;;;;;;;;;14.00;13.50;;;;;20.10;35.15;102146.81;5057876;28;45378;-53
2022/04/30 00:30:56;;;;;;;;;16.25;15.00;;;;;20.10;34.72;102148.59;5056531;28;46021;-52
2022/04/30 00:33:23;;;;;;;;;15.75;15.25;;;;;20.10;35.29;102146.81;5057586;28;45959;-49
2022/04/30 00:35:48;;;;;;;;;15.00;14.25;;;;;20.10;35.02;102145.97;5057576;28;45477;-49
2022/04/30 00:38:15;;;;;;;;;14.00;14.00;;;;;20.09;35.13;102152.97;5057689;28;45429;-49
2022/04/30 00:40:44;;;;;;;;;14.25;13.75;;;;;20.08;34.69;102152.13;5055837;28;46195;-49
2022/04/30 00:43:10;;;;;;;;;12.75;12.75;;;;;20.07;35.13;102166.19;5057237;28;45776;-49
2022/04/30 00:45:35;;;;;;;;;14.25;14.25;;;;;20.08;35.13;102164.41;5057329;28;45345;-47
2022/04/30 00:48:00;;;;;;;;;17.25;13.75;;;;;20.08;34.96;102161.78;5057449;28;45466;-49
2022/04/30 00:50:30;;;;;;;;;15.25;12.75;;;;;20.07;34.96;102157.44;5057049;28;46100;-48
2022/04/30 00:52:57;;;;;;;;;18.75;17.25;;;;;20.06;35.30;102146.06;5057202;28;46035;-48
2022/04/30 00:55:27;;;;;;;;;13.25;13.25;;;;;20.05;35.41;102151.38;5056422;28;45316;-50
2022/04/30 00:57:56;;;;;;;;;15.75;15.75;;;;;20.04;35.32;102154.91;5057062;28;45464;-47
2022/04/30 01:00:22;;;;;;;;;18.50;17.75;;;;;20.04;34.87;102154.91;5057146;28;46415;-49
2022/04/30 01:02:47;;;;;;;;;17.50;15.75;;;;;20.03;35.21;102154.03;5057124;28;45417;-49
2022/04/30 01:05:14;;;;;;;;;24.00;18.75;;;;;20.02;35.07;102146.22;5057023;28;46860;-49
2022/04/30 01:07:40;;;;;;;;;17.75;15.50;;;;;20.02;35.47;102152.31;5057077;28;45557;-55
2022/04/30 01:10:07;;;;;;;;;18.75;16.00;;;;;20.00;35.39;102138.38;5056712;28;46928;-54
2022/04/30 01:12:34;;;;;;;;;18.25;15.25;;;;;20.02;35.19;102144.41;5056499;28;45477;-49
2022/04/30 01:15:04;;;;;;;;;19.25;16.75;;;;;20.02;35.26;102135.69;5056589;28;45528;-49
2022/04/30 01:17:29;;;;;;;;;14.50;14.50;;;;;20.02;35.22;102146.22;5055705;28;45351;-49
2022/04/30 01:19:55;;;;;;;;;15.00;13.75;;;;;20.01;35.68;102134.81;5055362;28;46883;-52
2022/04/30 01:22:34;;;;;;;;;19.50;16.00;;;;;20.01;35.58;102134.81;5056889;28;45415;-50
2022/04/30 01:25:01;;;;;;;;;17.50;14.50;;;;;19.99;35.82;102123.50;5056516;28;45449;-49
2022/04/30 01:27:31;;;;;;;;;16.75;15.00;;;;;19.99;35.50;102126.13;5056961;28;45568;-52
2022/04/30 01:29:58;;;;;;;;;14.50;14.50;;;;;20.00;35.69;102127.84;5056512;28;45555;-53
2022/04/30 01:38:11;;;;;;;;;16.50;15.00;;;;;19.99;35.46;102125.25;5056626;28;45331;-49
2022/04/30 01:40:36;;;;;;;;;7.75;6.75;;;;;19.99;35.46;102123.50;5056038;28;46250;-51
2022/04/30 01:43:02;;;;;;;;;17.25;14.75;;;;;19.99;35.83;102125.25;5056184;28;45441;-49
2022/04/30 01:45:29;;;;;;;;;12.25;12.25;;;;;19.96;35.44;102120.94;5056442;28;45504;-49
2022/04/30 01:47:56;;;;;;;;;18.00;17.00;;;;;19.98;35.53;102123.53;5056428;28;45452;-46
2022/04/30 01:50:23;;;;;;;;;17.75;16.75;;;;;19.96;35.47;102112.19;5056465;28;46264;-55
2022/04/30 01:52:49;;;;;;;;;16.25;15.00;;;;;19.95;35.35;102113.97;5054998;28;45936;-49
2022/04/30 01:55:15;;;;;;;;;16.75;14.50;;;;;19.94;35.68;102109.59;5056123;28;45442;-51
2022/04/30 01:57:42;;;;;;;;;18.50;15.25;;;;;19.96;35.29;102110.44;5056667;28;45396;-49
2022/04/30 02:00:14;;;;;;;;;17.00;15.00;;;;;19.96;35.28;102110.44;5055833;28;46398;-51
2022/04/30 02:02:45;;;;;;;;;17.00;14.75;;;;;19.92;35.84;102107.03;5056033;28;45920;-54
2022/04/30 02:05:13;;;;;;;;;16.25;15.25;;;;;19.95;35.36;102102.59;5056257;28;45255;-51
2022/04/30 02:07:43;;;;;;;;;16.50;16.50;;;;;19.94;35.91;102109.59;5056181;28;45566;-54
2022/04/30 02:10:11;;;;;;;;;15.50;15.50;;;;;19.93;35.75;102103.50;5055876;28;47069;-53
2022/04/30 02:12:37;;;;;;;;;14.25;14.25;;;;;19.93;35.78;102106.13;5055925;28;46353;-51
2022/04/30 02:15:04;;;;;;;;;13.75;13.75;;;;;19.93;36.04;102102.63;5055441;28;45301;-50
2022/04/30 02:17:35;;;;;;;;;12.75;10.25;;;;;19.91;36.12;102099.19;5056280;28;45314;-50
2022/04/30 02:22:46;;;;;;;;;20.50;18.50;;;;;19.91;35.46;102100.06;5055701;28;45231;-49
2022/04/30 02:25:13;;;;;;;;;16.00;15.00;;;;;19.92;35.49;102098.28;5055885;28;45245;-50
2022/04/30 02:27:42;;;;;;;;;17.00;14.50;;;;;19.93;35.79;102102.63;5056001;28;45315;-50
2022/04/30 02:30:10;;;;;;;;;18.25;17.75;;;;;19.92;36.06;102098.28;5055685;28;47153;-51
2022/04/30 02:32:46;;;;;;;;;15.00;14.50;;;;;19.91;35.94;102102.69;5055688;28;45717;-48
2022/04/30 02:35:14;;;;;;;;;18.50;15.50;;;;;19.89;36.01;102087.88;5055739;28;45267;-50
2022/04/30 02:37:39;;;;;;;;;15.50;14.75;;;;;19.88;35.72;102096.66;5055659;28;45512;-48
2022/04/30 02:40:06;;;;;;;;;17.25;14.50;;;;;19.91;35.58;102096.53;5055508;28;45591;-49
2022/04/30 02:42:32;;;;;;;;;17.50;15.25;;;;;19.90;35.60;102105.34;5055670;28;45378;-47
2022/04/30 02:44:57;;;;;;;;;16.00;15.25;;;;;19.89;35.77;102096.59;5056032;28;45461;-46
2022/04/30 02:47:23;;;;;;;;;14.75;14.75;;;;;19.89;35.60;102101.88;5055888;28;45474;-48
2022/04/30 02:49:48;;;;;;;;;18.50;14.75;;;;;19.89;35.79;102093.97;5055371;28;45929;-48
2022/04/30 02:52:13;;;;;;;;;18.50;15.25;;;;;19.88;36.06;102096.66;5055676;28;45403;-50
2022/04/30 02:54:39;;;;;;;;;15.00;15.00;;;;;19.89;35.72;102093.97;5059011;28;45497;-51
2022/04/30 02:57:04;;;;;;;;;15.00;13.25;;;;;19.89;35.46;102098.38;5059201;28;45592;-50
2022/04/30 03:02:13;;;;;;;;;15.25;15.25;;;;;19.88;35.61;102091.41;5058774;28;46012;-50
2022/04/30 03:04:39;;;;;;;;;16.00;15.00;;;;;19.88;36.04;102086.13;5059371;28;45307;-49
2022/04/30 03:07:04;;;;;;;;;16.33;16.33;;;;;19.88;36.09;102083.50;5058583;28;48149;-50
2022/04/30 03:09:31;;;;;;;;;14.25;13.50;;;;;19.87;35.43;102085.25;5058860;28;45354;-50
2022/04/30 03:11:57;;;;;;;;;16.25;15.25;;;;;19.86;36.10;102083.53;5059119;28;45256;-51
2022/04/30 03:14:22;;;;;;;;;17.75;17.25;;;;;19.87;36.07;102089.69;5058551;28;45247;-47
2022/04/30 03:22:29;;;;;;;;;17.00;17.00;;;;;19.85;35.68;102086.19;5058806;28;45350;-49
2022/04/30 03:24:55;;;;;;;;;18.00;15.50;;;;;19.84;35.56;102080.09;5058829;28;45802;-48
2022/04/30 03:27:20;;;;;;;;;18.00;16.33;;;;;19.85;35.55;102086.19;5058158;28;49912;-49
2022/04/30 03:29:46;;;;;;;;;14.00;13.33;;;;;19.83;35.82;102090.66;5058024;28;49975;-48
2022/04/30 03:32:12;;;;;;;;;19.00;17.50;;;;;19.82;36.03;102087.16;5058419;28;45429;-50
2022/04/30 03:34:38;;;;;;;;;14.75;14.25;;;;;19.81;35.57;102080.19;5058560;28;45395;-48
2022/04/30 03:37:04;;;;;;;;;15.75;13.75;;;;;19.82;35.72;102081.03;5058418;28;45319;-50
2022/04/30 03:39:29;;;;;;;;;22.50;17.25;;;;;19.77;35.67;102074.16;5058184;28;46995;-52
2022/04/30 03:41:55;;;;;;;;;17.00;15.00;;;;;19.80;36.05;102078.47;5058167;28;45374;-52
2022/04/30 03:44:20;;;;;;;;;17.25;15.75;;;;;19.78;35.50;102078.53;5058208;28;45205;-49
2022/04/30 03:46:46;;;;;;;;;20.25;16.00;;;;;19.76;35.68;102077.69;5057218;28;45253;-48
2022/04/30 03:49:12;;;;;;;;;17.50;15.25;;;;;19.78;35.49;102082.91;5058170;28;46264;-49
2022/04/30 03:51:37;;;;;;;;;17.00;16.00;;;;;19.77;35.67;102078.56;5056470;28;45476;-47
2022/04/30 03:54:03;;;;;;;;;17.50;16.25;;;;;19.77;36.04;102078.56;5058034;28;45438;-50
2022/04/30 03:56:28;;;;;;;;;18.00;14.50;;;;;19.76;35.99;102082.97;5058401;28;45437;-50
2022/04/30 03:58:53;;;;;;;;;19.50;16.75;;;;;19.76;35.70;102076.81;5056577;28;47996;-49
2022/04/30 04:01:19;;;;;;;;;16.25;15.75;;;;;19.76;35.66;102082.09;5057869;28;45495;-50
2022/04/30 04:03:45;;;;;;;;;16.25;15.75;;;;;19.74;36.00;102074.25;5057709;28;45259;-50
2022/04/30 04:06:13;;;;;;;;;16.75;16.25;;;;;19.73;35.92;102072.53;5058034;28;45335;-49
2022/04/30 04:08:39;;;;;;;;;19.50;16.50;;;;;19.74;35.90;102074.25;5057628;28;45653;-50
2022/04/30 04:11:10;;;;;;;;;15.00;15.00;;;;;19.71;36.02;102074.34;5057762;28;45406;-50
2022/04/30 04:19:03;;;;;;;;;21.50;18.50;;;;;19.72;35.69;102075.22;5057595;28;45282;-51
2022/04/30 04:21:29;;;;;;;;;20.25;17.50;;;;;19.72;36.20;102075.22;5057898;28;45389;-53
2022/04/30 04:26:38;;;;;;;;;20.25;18.00;;;;;19.70;35.88;102077.88;5057943;28;45268;-49
2022/04/30 04:29:03;;;;;;;;;22.00;19.25;;;;;19.71;36.17;102079.59;5056511;28;46406;-49
2022/04/30 04:31:29;;;;;;;;;17.25;17.25;;;;;19.70;35.80;102072.63;5057363;28;55371;-53
2022/04/30 04:33:54;;;;;;;;;21.75;16.75;;;;;19.72;35.94;102073.44;5057590;28;45500;-52
2022/04/30 04:36:20;;;;;;;;;21.75;20.50;;;;;19.70;35.86;102083.16;5057648;28;45316;-49
2022/04/30 04:38:45;;;;;;;;;16.25;14.00;;;;;19.72;36.33;102081.34;5056984;28;45977;-49
2022/04/30 04:41:10;;;;;;;;;17.50;15.50;;;;;19.71;36.15;102084.03;5039154;28;45442;-49
2022/04/30 04:43:36;;;;;;;;;19.75;18.25;;;;;19.71;35.97;102084.03;5057315;28;45326;-50
2022/04/30 04:46:06;;;;;;;;;19.75;18.25;;;;;19.71;36.47;102082.25;5057794;28;45373;-52
2022/04/30 04:48:32;;;;;;;;;17.75;15.75;;;;;19.70;36.36;102096.28;5057179;28;46344;-48
2022/04/30 04:50:58;;;;;;;;;19.00;17.50;;;;;19.69;36.20;102097.19;5056975;28;45186;-49
2022/04/30 04:53:24;;;;;;;;;21.50;18.00;;;;;19.69;36.16;102101.63;5057202;28;45434;-47
2022/04/30 04:55:49;;;;;;;;;23.75;17.50;;;;;19.67;36.46;102109.56;5057196;28;45356;-49
2022/04/30 04:58:15;;;;;;;;;16.50;13.75;;;;;19.68;36.13;102108.63;5056945;28;46009;-51
2022/04/30 05:00:40;;;;;;;;;19.00;15.50;;;;;19.64;36.47;102101.75;5056925;28;45513;-50
2022/04/30 05:03:07;;;;;;;;;19.50;16.25;;;;;19.68;36.32;102113.03;5056834;28;45463;-49
2022/04/30 05:05:32;;;;;;;;;15.75;15.75;;;;;19.67;36.02;102109.56;5057592;28;45335;-51
2022/04/30 05:07:57;;;;;;;;;24.00;18.00;;;;;19.66;36.41;102113.09;5056586;28;45400;-48
2022/04/30 05:10:23;;;;;;;;;20.25;18.00;;;;;19.66;36.08;102113.09;5056956;28;45366;-52
2022/04/30 05:12:48;;;;;;;;;17.50;15.75;;;;;19.66;36.50;102102.59;5057017;28;45371;-51
2022/04/30 05:15:14;;;;;;;;;18.75;16.00;;;;;19.65;36.29;102111.38;5056465;28;45705;-53
2022/04/30 05:17:39;;;;;;;;;19.75;18.75;;;;;19.62;36.27;102109.69;5056472;28;45286;-51
2022/04/30 05:20:05;;;;;;;;;19.00;15.75;;;;;19.66;36.28;102114.84;5056924;28;45313;-50
2022/04/30 05:22:31;;;;;;;;;22.25;18.50;;;;;19.64;36.51;102114.91;5056749;28;45188;-50
2022/04/30 05:24:56;;;;;;;;;21.75;18.00;;;;;19.65;36.05;102118.41;5057032;28;45495;-52
2022/04/30 05:27:22;;;;;;;;;19.25;18.50;;;;;19.65;36.67;102126.28;5056596;28;46080;-50
2022/04/30 05:29:47;;;;;;;;;20.50;18.00;;;;;19.64;36.30;102125.44;5056540;28;45465;-50
2022/04/30 05:32:12;;;;;;;;;18.00;17.25;;;;;19.63;36.32;102123.72;5056577;28;45503;-52
2022/04/30 05:34:38;;;;;;;;;16.50;16.00;;;;;19.57;36.62;102123.88;5055467;28;45281;-52
2022/04/30 05:37:04;;;;;;;;;22.50;18.50;;;;;19.62;36.68;102129.88;5056550;28;45675;-50
2022/04/30 05:39:29;;;;;;;;;21.00;17.25;;;;;19.61;36.67;102130.78;5072053;28;45348;-53
2022/04/30 05:41:55;;;;;;;;;17.75;15.75;;;;;19.61;36.70;102142.19;5056458;28;45363;-49
2022/04/30 05:44:20;;;;;;;;;18.00;16.25;;;;;19.61;36.45;102136.03;5056685;28;45470;-50
2022/04/30 05:46:45;;;;;;;;;20.00;17.00;;;;;19.61;36.70;102143.94;5056396;28;45351;-50
2022/04/30 05:49:11;;;;;;;;;20.50;18.50;;;;;19.60;36.33;102147.47;5056115;28;45520;-50
2022/04/30 05:51:36;;;;;;;;;18.25;15.50;;;;;19.58;36.70;102138.75;5056287;28;45327;-52
2022/04/30 05:54:02;;;;;;;;;18.25;16.25;;;;;19.60;36.28;102136.94;5056583;28;45447;-47
2022/04/30 05:56:27;;;;;;;;;21.75;19.00;;;;;19.59;36.27;102143.09;5056105;28;46417;-50
2022/04/30 05:58:53;;;;;;;;;28.25;22.75;;;;;19.58;36.35;102146.66;5056040;28;45394;-50
2022/04/30 06:01:18;;;;;;;;;17.25;14.50;;;;;19.59;36.35;102145.75;5056410;28;45619;-53
2022/04/30 06:03:43;;;;;;;;;17.00;14.25;;;;;19.55;36.43;102144.13;5056174;28;45268;-49
2022/04/30 06:06:09;;;;;;;;;18.00;15.50;;;;;19.59;36.45;102153.63;5055995;28;45437;-51
2022/04/30 06:08:34;;;;;;;;;16.50;16.25;;;;;19.60;36.66;102155.34;5056428;28;45306;-48
2022/04/30 06:11:00;;;;;;;;;17.00;16.50;;;;;19.61;36.11;102151.81;5056043;28;45560;-49
2022/04/30 06:13:25;;;;;;;;;21.75;18.25;;;;;19.61;36.59;102151.81;5055775;28;45473;-48
2022/04/30 06:15:51;;;;;;;;;19.75;19.25;;;;;19.61;36.60;102157.97;5054092;28;46237;-52
2022/04/30 06:18:16;;;;;;;;;19.75;18.75;;;;;19.61;36.12;102157.97;5054409;28;45173;-48
2022/04/30 06:20:42;;;;;;;;;15.50;15.50;;;;;19.60;36.67;102163.25;5054652;28;45157;-49
2022/04/30 06:23:08;;;;;;;;;16.75;14.75;;;;;19.60;36.19;102160.63;5055123;28;45197;-52
2022/04/30 06:25:35;;;;;;;;;19.00;17.50;;;;;19.59;36.34;102170.28;5054258;28;45988;-49
2022/04/30 06:28:01;;;;;;;;;22.00;20.00;;;;;19.52;36.71;102149.47;5055535;28;45390;-49
2022/04/30 06:30:26;;;;;;;;;19.50;16.50;;;;;19.60;36.52;102173.75;5058726;28;45492;-53
2022/04/30 06:32:52;;;;;;;;;19.75;16.25;;;;;19.58;36.36;102165.94;5058647;28;45587;-53
2022/04/30 06:35:17;;;;;;;;;21.50;17.25;;;;;19.55;36.34;102166.00;5057952;28;46077;-51
2022/04/30 06:37:42;;;;;;;;;24.50;19.50;;;;;19.54;36.97;102155.56;5058448;28;45424;-53
2022/04/30 06:40:08;;;;;;;;;16.00;14.50;;;;;19.58;36.45;102178.19;5057529;28;45416;-49
2022/04/30 06:42:41;;;;;;;;;21.75;21.50;;;;;19.56;36.33;102170.38;5058596;28;45512;-50
2022/04/30 06:45:08;;;;;;;;;21.25;17.50;;;;;19.55;36.49;102165.16;5058498;28;46082;-54
2022/04/30 06:47:34;;;;;;;;;19.50;16.25;;;;;19.55;36.25;102167.81;5058190;28;45411;-53
2022/04/30 06:49:59;;;;;;;;;21.75;16.75;;;;;19.55;36.57;102173.06;5057982;28;45350;-51
2022/04/30 06:52:25;;;;;;;;;18.75;18.00;;;;;19.52;36.33;102168.72;5058435;28;45593;-52
2022/04/30 06:57:34;;;;;;;;;20.25;18.50;;;;;19.50;36.26;102169.69;5057980;28;45452;-49
2022/04/30 07:00:39;;;;;;;;;20.00;17.33;;;;;19.45;36.40;102168.09;5057595;28;47268;-49
2022/04/30 07:02:45;;;;;;;;;20.25;17.50;;;;;19.47;36.13;102179.38;5057933;28;45468;-50
2022/04/30 07:05:12;;;;;;;;;17.25;17.25;;;;;19.48;36.17;102182.91;5058116;28;45485;-52
2022/04/30 07:07:37;;;;;;;;;21.25;18.00;;;;;19.46;36.19;102184.69;5058078;28;45292;-53
2022/04/30 07:10:03;;;;;;;;;18.00;16.50;;;;;19.46;36.06;102185.56;5058104;28;45324;-53
2022/04/30 07:12:28;;;;;;;;;22.00;16.25;;;;;19.49;36.19;102186.38;5057925;28;45280;-53
2022/04/30 07:14:54;;;;;;;;;18.50;17.75;;;;;19.47;36.46;102192.53;5019070;28;1109619;-50
2022/04/30 07:17:20;;;;;;;;;22.00;20.50;;;;;19.46;36.53;102185.56;5058464;28;45812;-52
2022/04/30 07:19:45;;;;;;;;;18.50;17.25;;;;;19.46;35.93;102190.81;5058870;28;45473;-52
2022/04/30 07:22:11;;;;;;;;;23.00;17.75;;;;;19.47;36.13;102189.06;5059147;28;45647;-56
2022/04/30 07:24:37;;;;;;;;;17.75;16.25;;;;;19.46;36.31;102188.19;5058217;28;45414;-48
2022/04/30 07:27:04;;;;;;;;;15.50;14.50;;;;;19.47;36.17;102191.69;5058566;28;45399;-49
2022/04/30 07:29:31;;;;;;;;;16.50;14.25;;;;;19.49;36.02;102195.13;5058510;28;45526;-52
2022/04/30 07:31:57;;;;;;;;;16.75;16.25;;;;;19.50;36.04;102196.88;5058828;28;45457;-55
2022/04/30 07:34:23;;;;;;;;;20.75;18.50;;;;;19.50;36.08;102201.25;5058342;28;46457;-53
2022/04/30 07:36:48;;;;;;;;;19.25;13.25;;;;;19.50;36.10;102202.13;5058351;28;45334;-50
2022/04/30 07:39:13;;;;;;;;;14.00;14.00;;;;;19.49;36.20;102194.25;5058229;28;45272;-50
2022/04/30 07:41:39;;;;;;;;;12.75;12.75;;;;;19.48;36.07;102188.16;5057592;28;45403;-55
2022/04/30 07:44:04;;;;;;;;;16.25;13.75;;;;;19.51;35.78;102202.97;5058045;28;45433;-54
2022/04/30 07:46:30;;;;;;;;;13.75;13.25;;;;;19.51;35.83;102200.34;5056969;28;45365;-51
2022/04/30 07:48:56;;;;;;;;;20.50;16.75;;;;;19.52;36.04;102210.81;5058471;28;45401;-53
2022/04/30 07:51:34;;;;;;;;;17.00;15.50;;;;;19.53;35.78;102203.78;5058713;28;45379;-53
2022/04/30 07:54:01;;;;;;;;;15.50;12.75;;;;;19.50;35.93;102204.75;5057690;28;46096;-52
2022/04/30 07:56:27;;;;;;;;;15.75;15.00;;;;;19.52;36.24;102207.31;5057933;28;45360;-54
2022/04/30 07:58:52;;;;;;;;;19.50;14.00;;;;;19.52;35.89;102209.97;5058180;28;45322;-52
2022/04/30 08:01:17;;;;;;;;;15.67;14.00;;;;;19.52;35.87;102208.19;5057822;28;45758;-53
2022/04/30 08:03:44;;;;;;;;;17.25;13.75;;;;;19.53;36.24;102202.00;5057709;28;57041;-49
2022/04/30 08:06:09;;;;;;;;;17.50;13.25;;;;;19.55;36.10;102205.47;5057504;28;46294;-54
2022/04/30 08:08:34;;;;;;;;;17.75;13.75;;;;;19.56;36.16;102211.59;5058027;28;45185;-53
2022/04/30 08:11:00;;;;;;;;;15.50;12.75;;;;;19.57;35.74;102205.41;5058291;28;45457;-54
2022/04/30 08:13:26;;;;;;;;;20.75;15.50;;;;;19.57;35.97;102208.03;5057712;28;46132;-53
2022/04/30 08:15:52;;;;;;;;;16.75;14.00;;;;;19.60;35.67;102213.22;5056687;28;45454;-52
2022/04/30 08:18:17;;;;;;;;;15.75;12.50;;;;;19.62;36.33;102211.41;5037874;28;45392;-48
2022/04/30 08:20:43;;;;;;;;;14.75;13.75;;;;;19.64;36.05;102209.59;5038077;28;45517;-49
2022/04/30 08:23:08;;;;;;;;;17.75;14.75;;;;;19.65;35.86;102202.56;5037608;28;46980;-51
2022/04/30 08:25:35;;;;;;;;;15.50;15.25;;;;;19.69;36.21;102210.31;5037605;28;45408;-51
2022/04/30 08:28:01;;;;;;;;;15.00;13.25;;;;;19.70;35.73;102200.66;5037659;28;45391;-50
2022/04/30 08:30:26;;;;;;;;;15.75;13.75;;;;;19.71;35.87;102205.03;5037750;28;45423;-50
2022/04/30 08:32:52;;;;;;;;;16.00;12.00;;;;;19.70;35.92;102188.34;5037303;28;46090;-50
2022/04/30 08:35:17;;;;;;;;;14.00;11.00;;;;;19.73;35.83;102197.94;5037086;28;45322;-53
2022/04/30 08:37:43;;;;;;;;;14.25;12.00;;;;;19.74;35.61;102191.75;5053217;28;45364;-55
2022/04/30 08:40:08;;;;;;;;;18.00;12.75;;;;;19.74;35.57;102200.53;5037517;28;45584;-51
2022/04/30 08:42:34;;;;;;;;;18.00;13.75;;;;;19.75;35.78;102201.38;5036848;28;46167;-51
2022/04/30 08:45:06;;;;;;;;;13.50;12.00;;;;;19.76;35.67;102203.09;5037237;28;45276;-47
2022/04/30 08:47:37;;;;;;;;;17.25;13.50;;;;;19.78;35.92;102202.16;5037344;28;45380;-51
2022/04/30 08:50:03;;;;;;;;;12.75;11.50;;;;;19.75;36.01;102186.47;5036950;28;45348;-47
2022/04/30 08:52:28;;;;;;;;;13.25;11.25;;;;;19.81;35.77;102193.31;5035179;28;47293;-50
2022/04/30 08:54:53;;;;;;;;;14.00;13.25;;;;;19.79;36.24;102192.50;5036771;28;45331;-48
2022/04/30 08:57:20;;;;;;;;;13.25;12.25;;;;;19.83;36.08;102191.50;5036960;28;45540;-45
2022/04/30 08:59:46;;;;;;;;;13.50;10.25;;;;;19.84;36.00;102194.97;5037681;28;45197;-49
2022/04/30 09:02:12;;;;;;;;;12.00;12.00;;;;;19.83;36.02;102188.00;5037014;28;45419;-50
2022/04/30 09:04:42;;;;;;;;;14.00;11.75;;;;;19.84;35.64;102197.59;5037202;28;45340;-51
2022/04/30 09:07:15;;;;;;;;;13.50;13.25;;;;;19.82;35.83;102176.63;5036868;28;45334;-50
2022/04/30 09:09:41;;;;;;;;;13.75;12.25;;;;;19.85;35.61;102186.19;5036826;28;45482;-51
2022/04/30 09:12:08;;;;;;;;;13.00;11.00;;;;;19.86;36.02;102182.69;5036677;28;45527;-51
2022/04/30 09:14:34;;;;;;;;;16.75;13.50;;;;;19.86;35.97;102178.25;5036681;28;45856;-49
2022/04/30 09:17:10;;;;;;;;;13.25;12.00;;;;;19.88;35.48;102184.34;5036835;28;45442;-49
2022/04/30 09:19:55;;;;;;;;;12.00;9.50;;;;;19.88;35.73;102188.75;5036983;28;45514;-49
2022/04/30 09:22:33;;;;;;;;;13.25;11.00;;;;;19.89;35.52;102178.16;5036652;28;45409;-49
2022/04/30 09:25:00;;;;;;;;;10.50;8.50;;;;;19.88;36.15;102175.59;5036763;28;45472;-50
2022/04/30 09:27:26;;;;;;;;;12.50;11.00;;;;;19.90;35.97;102173.75;5036607;28;45432;-51
2022/04/30 09:29:52;;;;;;;;;14.00;10.00;;;;;19.89;35.64;102172.06;5036934;28;45584;-53
2022/04/30 09:32:22;;;;;;;;;12.25;10.25;;;;;19.91;36.21;102172.84;5036694;28;45375;-53
2022/04/30 09:37:48;;;;;;;;;13.50;12.25;;;;;19.91;35.18;102175.47;5036519;28;45233;-47
2022/04/30 09:40:13;;;;;;;;;10.00;10.00;;;;;19.90;35.42;102173.75;5036778;28;45413;-49
2022/04/30 09:42:43;;;;;;;;;17.00;13.25;;;;;19.90;35.46;102168.50;5036322;28;46978;-56
2022/04/30 09:45:21;;;;;;;;;11.50;9.25;;;;;19.91;36.01;102171.09;5036120;28;45346;-53
2022/04/30 09:47:47;;;;;;;;;11.75;11.25;;;;;19.92;35.91;102171.94;5036807;28;45441;-54
2022/04/30 09:55:42;;;;;;;;;10.00;9.25;;;;;19.95;36.08;102171.00;5035985;28;45354;-54
2022/04/30 09:58:10;;;;;;;;;10.00;10.00;;;;;19.97;37.14;102170.03;5036397;28;45417;-55
2022/04/30 10:00:36;;;;;;;;;17.75;13.00;;;;;19.96;36.28;102160.41;5036300;28;45581;-57
2022/04/30 10:03:02;;;;;;;;;10.25;9.50;;;;;19.98;36.47;102155.09;5035789;28;45349;-49
2022/04/30 10:05:30;;;;;;;;;9.75;9.75;;;;;19.98;36.67;102155.97;5035842;28;45347;-54
2022/04/30 10:07:55;;;;;;;;;15.50;12.00;;;;;19.99;36.02;102167.34;5036174;28;45216;-61
2022/04/30 10:10:25;;;;;;;;;12.50;12.00;;;;;20.00;36.02;102164.69;5036324;28;45481;-53
2022/04/30 10:13:03;;;;;;;;;11.50;9.50;;;;;19.99;36.30;102160.34;5036444;28;47195;-55
2022/04/30 10:15:39;;;;;;;;;12.50;9.25;;;;;20.01;36.29;102166.38;5035727;28;45786;-52
2022/04/30 10:18:08;;;;;;;;;8.00;8.00;;;;;20.01;36.07;102165.53;5036130;28;45378;-55
2022/04/30 10:20:34;;;;;;;;;11.50;11.50;;;;;20.01;36.07;102150.59;5036038;28;45502;-50
2022/04/30 10:23:00;;;;;;;;;12.00;9.50;;;;;20.01;36.15;102147.97;5035719;28;46309;-49
2022/04/30 10:25:35;;;;;;;;;15.25;10.50;;;;;20.02;35.60;102144.41;5034567;28;45460;-51
2022/04/30 10:28:23;;;;;;;;;12.25;10.25;;;;;20.03;35.67;102148.78;5035795;28;45351;-52
2022/04/30 10:30:59;;;;;;;;;9.75;9.00;;;;;20.02;35.65;102149.69;5030646;28;45444;-51
2022/04/30 10:33:25;;;;;;;;;8.75;7.75;;;;;20.03;35.92;102142.66;5035443;28;45648;-53
2022/04/30 10:36:06;;;;;;;;;7.75;7.75;;;;;20.03;35.40;102148.78;5035995;28;45289;-55
2022/04/30 10:38:32;;;;;;;;;11.75;11.00;;;;;20.03;35.69;102142.66;5035655;28;45457;-51
2022/04/30 10:40:59;;;;;;;;;9.75;8.00;;;;;20.04;35.66;102147.03;5035670;28;45655;-44
2022/04/30 10:43:31;;;;;;;;;7.75;7.75;;;;;20.04;36.00;102150.50;5035430;28;45530;-48
2022/04/30 10:45:58;;;;;;;;;10.00;10.00;;;;;20.06;36.73;102142.56;5035352;28;45809;-53
2022/04/30 10:48:24;;;;;;;;;8.25;8.25;;;;;20.07;36.62;102141.63;5035728;28;45516;-50
2022/04/30 10:51:10;;;;;;;;;13.00;8.75;;;;;20.07;36.11;102134.63;5036050;28;45605;-50
2022/04/30 10:53:40;;;;;;;;;11.75;10.75;;;;;20.06;36.25;102127.63;5033847;28;48354;-56
2022/04/30 10:56:07;;;;;;;;;10.25;10.00;;;;;20.06;36.60;102125.00;5035330;28;45340;-50
2022/04/30 10:58:33;;;;;;;;;12.25;9.25;;;;;20.08;36.16;102125.81;5035694;28;45461;-47
2022/04/30 11:01:18;;;;;;;;;10.75;8.50;;;;;20.09;36.37;102121.41;5035537;28;45173;-50
2022/04/30 11:03:46;;;;;;;;;10.50;9.75;;;;;20.10;36.48;102133.66;5035244;28;46819;-53
2022/04/30 11:06:19;;;;;;;;;12.25;11.75;;;;;20.11;36.26;102121.38;5035256;28;45503;-48
2022/04/30 11:08:44;;;;;;;;;13.25;10.00;;;;;20.11;35.76;102124.00;5035246;28;46168;-48
2022/04/30 11:11:09;;;;;;;;;9.00;7.50;;;;;20.10;36.39;102123.13;5035405;28;45598;-47
2022/04/30 11:13:35;;;;;;;;;8.75;7.25;;;;;20.11;35.76;102121.38;5035202;28;53414;-56
2022/04/30 11:16:00;;;;;;;;;10.00;9.00;;;;;20.09;35.98;102113.50;5038446;28;45453;-45
2022/04/30 11:18:26;;;;;;;;;13.25;8.50;;;;;20.10;35.57;102107.34;5038613;28;45386;-48
2022/04/30 11:21:00;;;;;;;;;7.50;7.50;;;;;20.12;35.78;102102.03;5038886;28;45584;-53
2022/04/30 11:23:25;;;;;;;;;12.25;10.00;;;;;20.11;35.44;102102.94;5038463;28;46093;-48
2022/04/30 11:25:50;;;;;;;;;9.00;8.75;;;;;20.11;35.43;102087.16;5038824;28;45379;-56
2022/04/30 11:28:16;;;;;;;;;8.50;8.25;;;;;20.11;35.24;102102.94;5038686;28;45367;-44
2022/04/30 11:30:44;;;;;;;;;7.75;7.75;;;;;20.11;35.15;102079.25;5038635;28;45468;-53
2022/04/30 11:33:10;;;;;;;;;8.25;7.25;;;;;20.11;35.23;102092.41;5038369;28;46509;-49
2022/04/30 11:35:35;;;;;;;;;9.50;8.75;;;;;20.11;35.44;102090.63;5038452;28;45335;-50
2022/04/30 11:38:02;;;;;;;;;10.75;7.25;;;;;20.10;35.35;102086.28;5038688;28;45448;-45
2022/04/30 11:40:27;;;;;;;;;8.25;8.25;;;;;20.07;34.90;102081.97;5038448;28;45836;-50
2022/04/30 11:43:01;;;;;;;;;9.50;7.75;;;;;20.07;34.82;102083.72;5038127;28;46070;-48
2022/04/30 11:45:31;;;;;;;;;10.00;8.25;;;;;20.07;34.84;102081.97;5038259;28;45711;-51
2022/04/30 11:48:00;;;;;;;;;6.00;6.00;;;;;20.08;34.73;102077.56;5038262;28;45554;-54